sensor_id;sensor_type;location;lat;lon;timestamp;P1;durP1;ratioP1;P2;durP2;ratioP2
1585;SDS011;786;48.718;9.514;2023-07-28T03:10:26;9.23;;;5.47;;
1585;SDS011;786;48.718;9.514;2023-07-28T03:12:52;6.82;;;5.93;;
1585;SDS011;786;48.718;9.514;2023-07-28T03:15:19;9.65;;;5.88;;
1585;SDS011;786;48.718;9.514;2023-07-28T03:17:47;5.88;;;5.32;;
1585;SDS011;786;48.718;9.514;2023-07-28T03:20:13;10.27;;;5.22;;
1585;SDS011;786;48.718;9.514;2023-07-28T03:22:39;7.57;;;6.03;;
1585;SDS011;786;48.718;9.514;2023-07-28T03:25:06;11.23;;;6.20;;
1585;SDS011;786;48.718;9.514;2023-07-28T03:27:34;5.07;;;4.53;;
1585;SDS011;786;48.718;9.514;2023-07-28T03:30:01;5.63;;;4.80;;
1585;SDS011;786;48.718;9.514;2023-07-28T03:32:27;6.53;;;5.93;;
1585;SDS011;786;48.718;9.514;2023-07-28T03:34:53;19.65;;;7.35;;
1585;SDS011;786;48.718;9.514;2023-07-28T03:37:20;9.55;;;5.90;;
1585;SDS011;786;48.718;9.514;2023-07-28T03:39:46;6.88;;;6.28;;
1585;SDS011;786;48.718;9.514;2023-07-28T03:42:13;5.80;;;4.57;;
1585;SDS011;786;48.718;9.514;2023-07-28T03:44:41;6.95;;;5.05;;
1585;SDS011;786;48.718;9.514;2023-07-28T03:47:08;5.68;;;5.13;;
1585;SDS011;786;48.718;9.514;2023-07-28T03:49:34;6.85;;;6.25;;
1585;SDS011;786;48.718;9.514;2023-07-28T03:52:00;7.00;;;5.90;;
1585;SDS011;786;48.718;9.514;2023-07-28T03:54:27;6.63;;;6.03;;
1585;SDS011;786;48.718;9.514;2023-07-28T03:56:53;7.68;;;6.10;;
1585;SDS011;786;48.718;9.514;2023-07-28T03:59:19;4.40;;;4.00;;
1585;SDS011;786;48.718;9.514;2023-07-28T04:01:47;5.05;;;4.63;;
1585;SDS011;786;48.718;9.514;2023-07-28T04:04:13;4.72;;;3.78;;
1585;SDS011;786;48.718;9.514;2023-07-28T04:06:40;5.78;;;4.55;;
1585;SDS011;786;48.718;9.514;2023-07-28T04:09:07;5.07;;;4.57;;
1585;SDS011;786;48.718;9.514;2023-07-28T04:11:34;5.40;;;4.90;;
1585;SDS011;786;48.718;9.514;2023-07-28T04:14:01;5.38;;;4.82;;
1585;SDS011;786;48.718;9.514;2023-07-28T04:16:28;9.25;;;6.50;;
1585;SDS011;786;48.718;9.514;2023-07-28T04:18:55;6.50;;;5.93;;
1585;SDS011;786;48.718;9.514;2023-07-28T04:21:22;4.90;;;4.40;;
1585;SDS011;786;48.718;9.514;2023-07-28T04:23:48;6.03;;;5.43;;
1585;SDS011;786;48.718;9.514;2023-07-28T04:26:15;4.30;;;3.65;;
1585;SDS011;786;48.718;9.514;2023-07-28T04:28:42;5.88;;;5.28;;
1585;SDS011;786;48.718;9.514;2023-07-28T04:31:08;4.57;;;4.10;;
1585;SDS011;786;48.718;9.514;2023-07-28T04:33:35;5.40;;;5.00;;
1585;SDS011;786;48.718;9.514;2023-07-28T04:36:03;6.18;;;5.68;;
1585;SDS011;786;48.718;9.514;2023-07-28T04:38:29;6.15;;;5.55;;
1585;SDS011;786;48.718;9.514;2023-07-28T04:40:56;7.45;;;6.90;;
1585;SDS011;786;48.718;9.514;2023-07-28T04:43:22;5.55;;;5.15;;
1585;SDS011;786;48.718;9.514;2023-07-28T04:45:49;6.30;;;5.82;;
1585;SDS011;786;48.718;9.514;2023-07-28T04:48:15;5.60;;;4.93;;
1585;SDS011;786;48.718;9.514;2023-07-28T04:50:41;5.28;;;4.78;;
1585;SDS011;786;48.718;9.514;2023-07-28T04:53:09;5.05;;;4.32;;
1585;SDS011;786;48.718;9.514;2023-07-28T04:55:35;5.75;;;5.10;;
1585;SDS011;786;48.718;9.514;2023-07-28T04:58:02;5.78;;;5.28;;
1585;SDS011;786;48.718;9.514;2023-07-28T05:00:28;6.90;;;6.35;;
1585;SDS011;786;48.718;9.514;2023-07-28T05:02:54;4.75;;;4.35;;
1585;SDS011;786;48.718;9.514;2023-07-28T05:05:21;6.32;;;5.85;;
1585;SDS011;786;48.718;9.514;2023-07-28T05:07:47;6.50;;;5.25;;
1585;SDS011;786;48.718;9.514;2023-07-28T05:10:15;7.40;;;4.85;;
1585;SDS011;786;48.718;9.514;2023-07-28T05:12:41;4.88;;;4.38;;
1585;SDS011;786;48.718;9.514;2023-07-28T05:15:08;5.65;;;5.13;;
1585;SDS011;786;48.718;9.514;2023-07-28T05:17:36;6.68;;;6.18;;
1585;SDS011;786;48.718;9.514;2023-07-28T05:20:02;5.78;;;5.32;;
1585;SDS011;786;48.718;9.514;2023-07-28T05:22:28;4.47;;;4.13;;
1585;SDS011;786;48.718;9.514;2023-07-28T05:24:55;7.57;;;6.88;;
1585;SDS011;786;48.718;9.514;2023-07-28T05:27:23;7.82;;;7.10;;
1585;SDS011;786;48.718;9.514;2023-07-28T05:29:49;6.50;;;5.65;;
1585;SDS011;786;48.718;9.514;2023-07-28T05:32:16;5.05;;;4.65;;
1585;SDS011;786;48.718;9.514;2023-07-28T05:34:42;4.75;;;4.32;;
1585;SDS011;786;48.718;9.514;2023-07-28T05:37:09;6.85;;;6.15;;
1585;SDS011;786;48.718;9.514;2023-07-28T05:39:35;6.45;;;5.82;;
1585;SDS011;786;48.718;9.514;2023-07-28T05:42:01;6.03;;;5.63;;
1585;SDS011;786;48.718;9.514;2023-07-28T05:44:29;7.43;;;5.95;;
1585;SDS011;786;48.718;9.514;2023-07-28T05:46:56;6.82;;;5.78;;
1585;SDS011;786;48.718;9.514;2023-07-28T05:49:22;5.95;;;5.35;;
1585;SDS011;786;48.718;9.514;2023-07-28T05:51:48;8.40;;;7.65;;
1585;SDS011;786;48.718;9.514;2023-07-28T05:54:15;7.90;;;7.25;;
1585;SDS011;786;48.718;9.514;2023-07-28T05:56:41;5.47;;;4.93;;
1585;SDS011;786;48.718;9.514;2023-07-28T05:59:08;6.75;;;6.15;;
1585;SDS011;786;48.718;9.514;2023-07-28T06:01:35;6.80;;;6.18;;
1585;SDS011;786;48.718;9.514;2023-07-28T06:04:02;6.43;;;5.80;;
1585;SDS011;786;48.718;9.514;2023-07-28T06:06:29;5.95;;;5.43;;
1585;SDS011;786;48.718;9.514;2023-07-28T06:08:55;7.38;;;6.18;;
1585;SDS011;786;48.718;9.514;2023-07-28T06:11:22;6.82;;;6.28;;
1585;SDS011;786;48.718;9.514;2023-07-28T06:13:48;8.55;;;7.75;;
1585;SDS011;786;48.718;9.514;2023-07-28T06:16:15;6.05;;;5.45;;
1585;SDS011;786;48.718;9.514;2023-07-28T06:18:43;5.90;;;5.32;;
1585;SDS011;786;48.718;9.514;2023-07-28T06:21:09;9.30;;;6.43;;
1585;SDS011;786;48.718;9.514;2023-07-28T06:23:35;7.90;;;7.10;;
1585;SDS011;786;48.718;9.514;2023-07-28T06:26:02;7.50;;;6.70;;
1585;SDS011;786;48.718;9.514;2023-07-28T06:28:28;10.45;;;7.50;;
1585;SDS011;786;48.718;9.514;2023-07-28T06:30:55;6.15;;;5.55;;
1585;SDS011;786;48.718;9.514;2023-07-28T06:33:21;6.53;;;5.93;;
1585;SDS011;786;48.718;9.514;2023-07-28T06:35:49;7.18;;;6.57;;
1585;SDS011;786;48.718;9.514;2023-07-28T06:38:16;6.85;;;5.85;;
1585;SDS011;786;48.718;9.514;2023-07-28T06:40:42;6.75;;;5.78;;
1585;SDS011;786;48.718;9.514;2023-07-28T06:43:09;9.48;;;8.57;;
1585;SDS011;786;48.718;9.514;2023-07-28T06:45:35;9.90;;;8.85;;
1585;SDS011;786;48.718;9.514;2023-07-28T06:48:02;9.50;;;8.70;;
1585;SDS011;786;48.718;9.514;2023-07-28T06:50:29;9.43;;;8.73;;
1585;SDS011;786;48.718;9.514;2023-07-28T06:52:58;8.18;;;7.45;;
1585;SDS011;786;48.718;9.514;2023-07-28T06:55:24;7.10;;;6.40;;
1585;SDS011;786;48.718;9.514;2023-07-28T06:57:51;7.22;;;6.53;;
1585;SDS011;786;48.718;9.514;2023-07-28T07:00:17;7.30;;;6.60;;
1585;SDS011;786;48.718;9.514;2023-07-28T07:02:44;6.55;;;6.03;;
1585;SDS011;786;48.718;9.514;2023-07-28T07:05:10;7.50;;;6.90;;
1585;SDS011;786;48.718;9.514;2023-07-28T07:07:39;8.63;;;6.53;;
1585;SDS011;786;48.718;9.514;2023-07-28T07:10:08;7.88;;;7.18;;
1585;SDS011;786;48.718;9.514;2023-07-28T07:12:35;7.55;;;6.93;;
1585;SDS011;786;48.718;9.514;2023-07-28T07:15:02;7.95;;;7.28;;
1585;SDS011;786;48.718;9.514;2023-07-28T07:17:29;7.50;;;6.85;;
1585;SDS011;786;48.718;9.514;2023-07-28T07:19:55;8.13;;;6.03;;
1585;SDS011;786;48.718;9.514;2023-07-28T07:22:21;6.55;;;5.93;;
1585;SDS011;786;48.718;9.514;2023-07-28T07:24:48;6.10;;;5.60;;
1585;SDS011;786;48.718;9.514;2023-07-28T07:27:16;7.72;;;7.10;;
1585;SDS011;786;48.718;9.514;2023-07-28T07:29:43;9.75;;;8.95;;
1585;SDS011;786;48.718;9.514;2023-07-28T07:32:10;8.23;;;7.53;;
1585;SDS011;786;48.718;9.514;2023-07-28T07:34:37;8.48;;;7.68;;
1585;SDS011;786;48.718;9.514;2023-07-28T07:37:03;8.05;;;7.18;;
1585;SDS011;786;48.718;9.514;2023-07-28T07:39:30;7.50;;;6.82;;
1585;SDS011;786;48.718;9.514;2023-07-28T07:41:57;8.48;;;6.63;;
1585;SDS011;786;48.718;9.514;2023-07-28T07:44:25;7.97;;;7.28;;
1585;SDS011;786;48.718;9.514;2023-07-28T07:46:51;9.30;;;8.43;;
1585;SDS011;786;48.718;9.514;2023-07-28T07:49:18;6.35;;;5.80;;
1585;SDS011;786;48.718;9.514;2023-07-28T07:51:44;7.97;;;7.13;;
1585;SDS011;786;48.718;9.514;2023-07-28T07:54:11;9.93;;;8.65;;
1585;SDS011;786;48.718;9.514;2023-07-28T07:56:40;8.90;;;7.97;;
1585;SDS011;786;48.718;9.514;2023-07-28T07:59:07;8.93;;;8.13;;
1585;SDS011;786;48.718;9.514;2023-07-28T08:01:35;11.88;;;10.77;;
1585;SDS011;786;48.718;9.514;2023-07-28T08:04:01;9.82;;;8.80;;
1585;SDS011;786;48.718;9.514;2023-07-28T08:06:27;8.27;;;7.47;;
1585;SDS011;786;48.718;9.514;2023-07-28T08:08:54;9.75;;;8.77;;
1585;SDS011;786;48.718;9.514;2023-07-28T08:11:21;8.15;;;7.43;;
1585;SDS011;786;48.718;9.514;2023-07-28T08:13:48;8.80;;;8.05;;
1585;SDS011;786;48.718;9.514;2023-07-28T08:16:14;10.88;;;10.07;;
1585;SDS011;786;48.718;9.514;2023-07-28T08:18:42;8.68;;;7.90;;
1585;SDS011;786;48.718;9.514;2023-07-28T08:21:08;10.98;;;9.88;;
1585;SDS011;786;48.718;9.514;2023-07-28T08:23:35;9.73;;;9.00;;
1585;SDS011;786;48.718;9.514;2023-07-28T08:26:01;10.00;;;9.07;;
1585;SDS011;786;48.718;9.514;2023-07-28T08:28:28;9.65;;;8.80;;
1585;SDS011;786;48.718;9.514;2023-07-28T08:30:55;9.90;;;8.88;;
1585;SDS011;786;48.718;9.514;2023-07-28T08:33:23;8.88;;;7.97;;
1585;SDS011;786;48.718;9.514;2023-07-28T08:35:50;8.77;;;7.95;;
1585;SDS011;786;48.718;9.514;2023-07-28T08:38:17;10.57;;;9.57;;
1585;SDS011;786;48.718;9.514;2023-07-28T08:40:43;8.50;;;7.75;;
1585;SDS011;786;48.718;9.514;2023-07-28T08:43:10;10.18;;;9.15;;
1585;SDS011;786;48.718;9.514;2023-07-28T08:45:36;8.32;;;7.43;;
1585;SDS011;786;48.718;9.514;2023-07-28T08:48:03;10.02;;;9.07;;
1585;SDS011;786;48.718;9.514;2023-07-28T08:50:30;8.38;;;7.63;;
1585;SDS011;786;48.718;9.514;2023-07-28T08:52:58;10.07;;;9.23;;
1585;SDS011;786;48.718;9.514;2023-07-28T08:55:24;10.40;;;9.60;;
1585;SDS011;786;48.718;9.514;2023-07-28T08:57:51;9.57;;;8.57;;
1585;SDS011;786;48.718;9.514;2023-07-28T09:00:18;7.82;;;7.22;;
1585;SDS011;786;48.718;9.514;2023-07-28T09:02:48;7.63;;;6.18;;
1585;SDS011;786;48.718;9.514;2023-07-28T09:05:18;9.43;;;8.63;;
1585;SDS011;786;48.718;9.514;2023-07-28T09:07:45;7.53;;;6.07;;
1585;SDS011;786;48.718;9.514;2023-07-28T09:10:13;9.23;;;8.40;;
1585;SDS011;786;48.718;9.514;2023-07-28T09:12:44;6.90;;;6.20;;
1585;SDS011;786;48.718;9.514;2023-07-28T09:15:11;17.50;;;8.23;;
1585;SDS011;786;48.718;9.514;2023-07-28T09:17:41;6.85;;;6.13;;
1585;SDS011;786;48.718;9.514;2023-07-28T09:20:09;7.78;;;7.07;;
1585;SDS011;786;48.718;9.514;2023-07-28T09:22:38;6.05;;;5.43;;
1585;SDS011;786;48.718;9.514;2023-07-28T09:25:11;8.95;;;7.55;;
1585;SDS011;786;48.718;9.514;2023-07-28T09:27:39;5.75;;;5.25;;
1585;SDS011;786;48.718;9.514;2023-07-28T09:30:06;8.35;;;7.65;;
1585;SDS011;786;48.718;9.514;2023-07-28T09:32:33;6.85;;;6.25;;
1585;SDS011;786;48.718;9.514;2023-07-28T09:35:05;7.28;;;6.57;;
1585;SDS011;786;48.718;9.514;2023-07-28T09:37:34;6.60;;;5.93;;
1585;SDS011;786;48.718;9.514;2023-07-28T09:40:02;6.63;;;6.15;;
1585;SDS011;786;48.718;9.514;2023-07-28T09:42:30;5.82;;;5.32;;
1585;SDS011;786;48.718;9.514;2023-07-28T09:44:58;6.32;;;5.72;;
1585;SDS011;786;48.718;9.514;2023-07-28T09:47:24;6.10;;;5.57;;
1585;SDS011;786;48.718;9.514;2023-07-28T09:49:51;6.43;;;5.93;;
1585;SDS011;786;48.718;9.514;2023-07-28T09:52:19;7.60;;;7.00;;
1585;SDS011;786;48.718;9.514;2023-07-28T09:54:49;7.53;;;6.28;;
1585;SDS011;786;48.718;9.514;2023-07-28T09:57:19;5.75;;;5.25;;
1585;SDS011;786;48.718;9.514;2023-07-28T09:59:47;4.88;;;4.45;;
1585;SDS011;786;48.718;9.514;2023-07-28T10:02:15;4.78;;;4.38;;
1585;SDS011;786;48.718;9.514;2023-07-28T10:04:41;4.30;;;3.90;;
1585;SDS011;786;48.718;9.514;2023-07-28T10:07:08;6.43;;;5.93;;
1585;SDS011;786;48.718;9.514;2023-07-28T10:09:35;5.93;;;5.43;;
1585;SDS011;786;48.718;9.514;2023-07-28T11:08:05;4.88;;;4.47;;
1585;SDS011;786;48.718;9.514;2023-07-28T11:10:33;4.20;;;3.90;;
1585;SDS011;786;48.718;9.514;2023-07-28T11:13:00;4.45;;;3.92;;
1585;SDS011;786;48.718;9.514;2023-07-28T11:15:27;2.92;;;2.72;;
1585;SDS011;786;48.718;9.514;2023-07-28T11:17:54;4.30;;;3.90;;
1585;SDS011;786;48.718;9.514;2023-07-28T11:20:21;2.83;;;2.60;;
1585;SDS011;786;48.718;9.514;2023-07-28T11:22:53;4.40;;;3.13;;
1585;SDS011;786;48.718;9.514;2023-07-28T11:25:21;6.05;;;5.35;;
1585;SDS011;786;48.718;9.514;2023-07-28T11:27:49;3.85;;;3.03;;
1585;SDS011;786;48.718;9.514;2023-07-28T11:33:02;3.85;;;3.65;;
1585;SDS011;786;48.718;9.514;2023-07-28T11:35:29;5.05;;;4.65;;
1585;SDS011;786;48.718;9.514;2023-07-28T11:37:57;5.47;;;5.03;;
1585;SDS011;786;48.718;9.514;2023-07-28T11:40:24;4.05;;;3.67;;
1585;SDS011;786;48.718;9.514;2023-07-28T11:42:51;3.05;;;2.85;;
1585;SDS011;786;48.718;9.514;2023-07-28T11:45:18;4.30;;;4.00;;
1585;SDS011;786;48.718;9.514;2023-07-28T11:47:56;2.63;;;2.42;;
1585;SDS011;786;48.718;9.514;2023-07-28T11:50:24;3.97;;;3.70;;
1585;SDS011;786;48.718;9.514;2023-07-28T11:52:51;3.08;;;2.88;;
1585;SDS011;786;48.718;9.514;2023-07-28T11:55:19;2.88;;;2.67;;
1585;SDS011;786;48.718;9.514;2023-07-28T11:57:47;2.80;;;2.60;;
1585;SDS011;786;48.718;9.514;2023-07-28T12:00:14;3.50;;;3.20;;
1585;SDS011;786;48.718;9.514;2023-07-28T12:02:42;3.17;;;2.97;;
1585;SDS011;786;48.718;9.514;2023-07-28T12:05:11;4.75;;;4.45;;
1585;SDS011;786;48.718;9.514;2023-07-28T12:07:39;3.28;;;3.08;;
1585;SDS011;786;48.718;9.514;2023-07-28T12:10:06;3.67;;;3.38;;
1585;SDS011;786;48.718;9.514;2023-07-28T12:12:40;3.65;;;3.45;;
1585;SDS011;786;48.718;9.514;2023-07-28T12:15:18;3.67;;;3.40;;
1585;SDS011;786;48.718;9.514;2023-07-28T12:18:01;2.90;;;2.70;;
1585;SDS011;786;48.718;9.514;2023-07-28T12:20:32;3.92;;;3.72;;
1585;SDS011;786;48.718;9.514;2023-07-28T12:22:59;4.22;;;3.88;;
1585;SDS011;786;48.718;9.514;2023-07-28T12:25:26;4.00;;;3.70;;
1585;SDS011;786;48.718;9.514;2023-07-28T12:27:54;3.17;;;2.95;;
1585;SDS011;786;48.718;9.514;2023-07-28T12:30:20;4.38;;;3.95;;
1585;SDS011;786;48.718;9.514;2023-07-28T12:32:47;3.30;;;3.10;;
1585;SDS011;786;48.718;9.514;2023-07-28T12:35:13;3.97;;;3.78;;
1585;SDS011;786;48.718;9.514;2023-07-28T12:37:39;9.13;;;4.03;;
1585;SDS011;786;48.718;9.514;2023-07-28T12:40:07;5.05;;;4.60;;
1585;SDS011;786;48.718;9.514;2023-07-28T12:42:35;7.03;;;4.85;;
1585;SDS011;786;48.718;9.514;2023-07-28T12:45:03;6.60;;;5.30;;
1585;SDS011;786;48.718;9.514;2023-07-28T12:47:31;4.30;;;3.90;;
1585;SDS011;786;48.718;9.514;2023-07-28T12:49:57;4.68;;;4.28;;
1585;SDS011;786;48.718;9.514;2023-07-28T12:52:24;4.97;;;4.47;;
1585;SDS011;786;48.718;9.514;2023-07-28T12:54:50;5.15;;;4.25;;
1585;SDS011;786;48.718;9.514;2023-07-28T12:57:17;4.63;;;4.22;;
1585;SDS011;786;48.718;9.514;2023-07-28T12:59:43;4.18;;;3.80;;
1585;SDS011;786;48.718;9.514;2023-07-28T13:02:11;5.80;;;5.30;;
1585;SDS011;786;48.718;9.514;2023-07-28T13:04:37;4.65;;;3.78;;
1585;SDS011;786;48.718;9.514;2023-07-28T13:07:04;5.53;;;5.10;;
1585;SDS011;786;48.718;9.514;2023-07-28T13:09:30;4.68;;;4.22;;
1585;SDS011;786;48.718;9.514;2023-07-28T13:11:57;4.95;;;4.65;;
1585;SDS011;786;48.718;9.514;2023-07-28T13:14:23;5.55;;;5.03;;
1585;SDS011;786;48.718;9.514;2023-07-28T13:16:49;6.57;;;6.18;;
1585;SDS011;786;48.718;9.514;2023-07-28T13:19:17;4.65;;;4.00;;
1585;SDS011;786;48.718;9.514;2023-07-28T13:21:44;4.30;;;3.88;;
1585;SDS011;786;48.718;9.514;2023-07-28T13:24:10;5.50;;;5.10;;
1585;SDS011;786;48.718;9.514;2023-07-28T13:26:36;4.47;;;3.65;;
1585;SDS011;786;48.718;9.514;2023-07-28T13:29:03;5.40;;;4.95;;
1585;SDS011;786;48.718;9.514;2023-07-28T13:31:32;5.00;;;4.55;;
1585;SDS011;786;48.718;9.514;2023-07-28T13:33:58;4.55;;;4.25;;
1585;SDS011;786;48.718;9.514;2023-07-28T13:36:26;5.03;;;4.60;;
1585;SDS011;786;48.718;9.514;2023-07-28T13:38:52;3.65;;;3.35;;
1585;SDS011;786;48.718;9.514;2023-07-28T13:41:19;4.80;;;4.45;;
1585;SDS011;786;48.718;9.514;2023-07-28T13:43:45;4.18;;;3.78;;
1585;SDS011;786;48.718;9.514;2023-07-28T13:46:12;4.28;;;3.88;;
1585;SDS011;786;48.718;9.514;2023-07-28T13:48:38;5.03;;;3.90;;
1585;SDS011;786;48.718;9.514;2023-07-28T13:51:05;5.07;;;4.68;;
1585;SDS011;786;48.718;9.514;2023-07-28T13:53:33;5.55;;;4.43;;
1585;SDS011;786;48.718;9.514;2023-07-28T13:55:59;6.30;;;5.88;;
1585;SDS011;786;48.718;9.514;2023-07-28T13:58:26;6.05;;;5.57;;
1585;SDS011;786;48.718;9.514;2023-07-28T14:00:52;4.78;;;4.38;;
1585;SDS011;786;48.718;9.514;2023-07-28T14:03:31;4.20;;;3.78;;
1585;SDS011;786;48.718;9.514;2023-07-28T14:05:57;4.55;;;4.25;;
1585;SDS011;786;48.718;9.514;2023-07-28T14:08:23;4.57;;;4.18;;
1585;SDS011;786;48.718;9.514;2023-07-28T14:10:52;3.40;;;3.10;;
1585;SDS011;786;48.718;9.514;2023-07-28T14:13:18;4.85;;;3.72;;
1585;SDS011;786;48.718;9.514;2023-07-28T14:15:45;4.78;;;4.30;;
1585;SDS011;786;48.718;9.514;2023-07-28T14:18:11;5.50;;;5.10;;
1585;SDS011;786;48.718;9.514;2023-07-28T14:20:38;4.70;;;4.10;;
1585;SDS011;786;48.718;9.514;2023-07-28T14:23:19;5.75;;;4.97;;
1585;SDS011;786;48.718;9.514;2023-07-28T14:25:46;4.32;;;3.92;;
1585;SDS011;786;48.718;9.514;2023-07-28T14:28:14;4.53;;;4.05;;
1585;SDS011;786;48.718;9.514;2023-07-28T14:30:40;4.97;;;4.57;;
1585;SDS011;786;48.718;9.514;2023-07-28T14:33:11;5.35;;;4.88;;
1585;SDS011;786;48.718;9.514;2023-07-28T14:35:37;4.53;;;4.13;;
1585;SDS011;786;48.718;9.514;2023-07-28T14:38:04;6.85;;;6.22;;
1585;SDS011;786;48.718;9.514;2023-07-28T14:40:30;6.22;;;5.72;;
1585;SDS011;786;48.718;9.514;2023-07-28T14:42:57;5.40;;;4.88;;
1585;SDS011;786;48.718;9.514;2023-07-28T14:45:24;5.75;;;5.28;;
1585;SDS011;786;48.718;9.514;2023-07-28T14:47:51;4.20;;;3.83;;
1585;SDS011;786;48.718;9.514;2023-07-28T14:50:17;5.32;;;4.93;;
1585;SDS011;786;48.718;9.514;2023-07-28T14:52:43;4.25;;;3.83;;
1585;SDS011;786;48.718;9.514;2023-07-28T14:55:10;4.97;;;4.47;;
1585;SDS011;786;48.718;9.514;2023-07-28T14:57:36;5.32;;;4.88;;
1585;SDS011;786;48.718;9.514;2023-07-28T15:00:03;8.38;;;5.55;;
1585;SDS011;786;48.718;9.514;2023-07-28T15:02:32;4.75;;;4.35;;
1585;SDS011;786;48.718;9.514;2023-07-28T15:04:59;6.55;;;5.50;;
1585;SDS011;786;48.718;9.514;2023-07-28T15:07:25;5.93;;;5.45;;
1585;SDS011;786;48.718;9.514;2023-07-28T15:09:52;4.35;;;3.72;;
1585;SDS011;786;48.718;9.514;2023-07-28T15:12:18;4.72;;;4.30;;
1585;SDS011;786;48.718;9.514;2023-07-28T15:14:44;4.13;;;3.72;;
1585;SDS011;786;48.718;9.514;2023-07-28T15:17:11;4.95;;;4.53;;
1585;SDS011;786;48.718;9.514;2023-07-28T15:19:38;3.88;;;3.58;;
1585;SDS011;786;48.718;9.514;2023-07-28T15:22:05;4.70;;;4.35;;
1585;SDS011;786;48.718;9.514;2023-07-28T15:24:31;4.43;;;4.13;;
1585;SDS011;786;48.718;9.514;2023-07-28T15:26:58;4.40;;;4.00;;
1585;SDS011;786;48.718;9.514;2023-07-28T15:29:24;5.43;;;5.03;;
1585;SDS011;786;48.718;9.514;2023-07-28T15:31:51;4.38;;;3.97;;
1585;SDS011;786;48.718;9.514;2023-07-28T15:34:18;4.53;;;4.13;;
1585;SDS011;786;48.718;9.514;2023-07-28T15:36:47;3.95;;;3.65;;
1585;SDS011;786;48.718;9.514;2023-07-28T15:42:13;5.90;;;5.40;;
1585;SDS011;786;48.718;9.514;2023-07-28T15:44:39;4.88;;;4.28;;
1585;SDS011;786;48.718;9.514;2023-07-28T15:47:06;6.55;;;5.95;;
1585;SDS011;786;48.718;9.514;2023-07-28T15:49:32;5.82;;;5.45;;
1585;SDS011;786;48.718;9.514;2023-07-28T15:52:00;6.07;;;5.57;;
1585;SDS011;786;48.718;9.514;2023-07-28T15:54:27;7.00;;;6.40;;
1585;SDS011;786;48.718;9.514;2023-07-28T15:56:53;5.50;;;5.10;;
1585;SDS011;786;48.718;9.514;2023-07-28T15:59:20;4.47;;;4.07;;
1585;SDS011;786;48.718;9.514;2023-07-28T16:01:46;5.13;;;4.72;;
1585;SDS011;786;48.718;9.514;2023-07-28T16:04:13;5.10;;;4.70;;
1585;SDS011;786;48.718;9.514;2023-07-28T16:06:39;6.55;;;4.57;;
1585;SDS011;786;48.718;9.514;2023-07-28T16:09:07;4.95;;;4.55;;
1585;SDS011;786;48.718;9.514;2023-07-28T16:11:33;5.18;;;4.72;;
1585;SDS011;786;48.718;9.514;2023-07-28T16:13:59;5.25;;;4.85;;
1585;SDS011;786;48.718;9.514;2023-07-28T16:16:26;6.40;;;5.80;;
1585;SDS011;786;48.718;9.514;2023-07-28T16:18:52;4.68;;;4.22;;
1585;SDS011;786;48.718;9.514;2023-07-28T16:21:19;4.70;;;4.30;;
1585;SDS011;786;48.718;9.514;2023-07-28T16:23:45;4.88;;;4.47;;
1585;SDS011;786;48.718;9.514;2023-07-28T16:26:13;5.10;;;4.70;;
1585;SDS011;786;48.718;9.514;2023-07-28T16:28:39;4.88;;;4.38;;
1585;SDS011;786;48.718;9.514;2023-07-28T16:31:05;5.40;;;4.95;;
1585;SDS011;786;48.718;9.514;2023-07-28T16:33:32;5.15;;;4.75;;
1585;SDS011;786;48.718;9.514;2023-07-28T16:35:58;5.00;;;4.55;;
1585;SDS011;786;48.718;9.514;2023-07-28T16:38:25;6.13;;;5.68;;
1585;SDS011;786;48.718;9.514;2023-07-28T16:40:51;4.07;;;3.78;;
1585;SDS011;786;48.718;9.514;2023-07-28T16:43:19;3.97;;;3.67;;
1585;SDS011;786;48.718;9.514;2023-07-28T16:45:45;4.75;;;4.35;;
1585;SDS011;786;48.718;9.514;2023-07-28T16:48:12;5.90;;;5.10;;
1585;SDS011;786;48.718;9.514;2023-07-28T16:50:38;4.80;;;4.32;;
1585;SDS011;786;48.718;9.514;2023-07-28T16:53:04;5.03;;;4.53;;
1585;SDS011;786;48.718;9.514;2023-07-28T16:55:31;5.72;;;5.15;;
1585;SDS011;786;48.718;9.514;2023-07-28T16:58:01;6.10;;;5.70;;
1585;SDS011;786;48.718;9.514;2023-07-28T17:00:29;6.50;;;6.00;;
1585;SDS011;786;48.718;9.514;2023-07-28T17:02:55;5.18;;;4.68;;
1585;SDS011;786;48.718;9.514;2023-07-28T17:05:23;6.75;;;6.25;;
1585;SDS011;786;48.718;9.514;2023-07-28T17:07:50;5.13;;;4.72;;
1585;SDS011;786;48.718;9.514;2023-07-28T17:10:16;4.88;;;4.40;;
1585;SDS011;786;48.718;9.514;2023-07-28T17:12:43;5.30;;;4.80;;
1585;SDS011;786;48.718;9.514;2023-07-28T17:15:09;5.97;;;5.47;;
1585;SDS011;786;48.718;9.514;2023-07-28T17:17:37;7.57;;;6.88;;
1585;SDS011;786;48.718;9.514;2023-07-28T17:20:04;6.20;;;5.60;;
1585;SDS011;786;48.718;9.514;2023-07-28T17:22:31;7.00;;;6.43;;
1585;SDS011;786;48.718;9.514;2023-07-28T17:24:59;5.85;;;5.35;;
1585;SDS011;786;48.718;9.514;2023-07-28T17:27:25;6.88;;;6.28;;
1585;SDS011;786;48.718;9.514;2023-07-28T17:29:52;5.43;;;4.97;;
1585;SDS011;786;48.718;9.514;2023-07-28T17:32:24;6.30;;;5.43;;
1585;SDS011;786;48.718;9.514;2023-07-28T17:35:07;5.93;;;5.32;;
1585;SDS011;786;48.718;9.514;2023-07-28T17:37:34;6.07;;;5.18;;
1585;SDS011;786;48.718;9.514;2023-07-28T17:40:00;5.40;;;4.93;;
1585;SDS011;786;48.718;9.514;2023-07-28T17:42:27;6.28;;;5.78;;
1585;SDS011;786;48.718;9.514;2023-07-28T17:44:54;8.13;;;5.78;;
1585;SDS011;786;48.718;9.514;2023-07-28T17:47:21;7.22;;;6.65;;
1585;SDS011;786;48.718;9.514;2023-07-28T17:49:47;5.35;;;4.93;;
1585;SDS011;786;48.718;9.514;2023-07-28T17:52:15;6.65;;;6.15;;
1585;SDS011;786;48.718;9.514;2023-07-28T17:54:42;5.35;;;4.88;;
1585;SDS011;786;48.718;9.514;2023-07-28T17:57:11;8.00;;;7.40;;
1585;SDS011;786;48.718;9.514;2023-07-28T18:03:11;5.57;;;5.07;;
1585;SDS011;786;48.718;9.514;2023-07-28T18:05:38;6.38;;;5.78;;
1585;SDS011;786;48.718;9.514;2023-07-28T18:08:05;6.43;;;5.78;;
1585;SDS011;786;48.718;9.514;2023-07-28T18:10:36;6.00;;;5.40;;
1585;SDS011;786;48.718;9.514;2023-07-28T18:13:03;6.50;;;6.00;;
1585;SDS011;786;48.718;9.514;2023-07-28T18:15:29;6.78;;;5.97;;
1585;SDS011;786;48.718;9.514;2023-07-28T18:17:56;5.70;;;5.20;;
1585;SDS011;786;48.718;9.514;2023-07-28T18:20:22;6.82;;;6.22;;
1585;SDS011;786;48.718;9.514;2023-07-28T18:22:48;5.25;;;4.75;;
1585;SDS011;786;48.718;9.514;2023-07-28T18:25:16;6.07;;;5.57;;
1585;SDS011;786;48.718;9.514;2023-07-28T18:27:42;5.47;;;4.97;;
1585;SDS011;786;48.718;9.514;2023-07-28T18:30:09;4.63;;;4.20;;
1585;SDS011;786;48.718;9.514;2023-07-28T18:32:37;5.43;;;4.93;;
1585;SDS011;786;48.718;9.514;2023-07-28T18:35:04;6.45;;;5.95;;
1585;SDS011;786;48.718;9.514;2023-07-28T18:37:31;5.60;;;5.10;;
1585;SDS011;786;48.718;9.514;2023-07-28T18:39:57;5.28;;;4.78;;
1585;SDS011;786;48.718;9.514;2023-07-28T18:42:25;6.18;;;5.68;;
1585;SDS011;786;48.718;9.514;2023-07-28T18:44:51;5.03;;;4.63;;
1585;SDS011;786;48.718;9.514;2023-07-28T18:47:18;6.47;;;5.97;;
1585;SDS011;786;48.718;9.514;2023-07-28T18:49:45;5.32;;;4.82;;
1585;SDS011;786;48.718;9.514;2023-07-28T18:52:12;7.05;;;6.38;;
1585;SDS011;786;48.718;9.514;2023-07-28T18:54:38;5.45;;;4.68;;
1585;SDS011;786;48.718;9.514;2023-07-28T18:57:06;7.03;;;6.47;;
1585;SDS011;786;48.718;9.514;2023-07-28T18:59:34;6.22;;;5.63;;
1585;SDS011;786;48.718;9.514;2023-07-28T19:02:00;5.38;;;4.88;;
1585;SDS011;786;48.718;9.514;2023-07-28T19:04:28;7.45;;;6.80;;
1585;SDS011;786;48.718;9.514;2023-07-28T19:06:54;5.78;;;5.38;;
1585;SDS011;786;48.718;9.514;2023-07-28T19:09:21;6.72;;;6.13;;
1585;SDS011;786;48.718;9.514;2023-07-28T19:11:47;5.70;;;5.20;;
1585;SDS011;786;48.718;9.514;2023-07-28T19:14:13;6.38;;;5.78;;
1585;SDS011;786;48.718;9.514;2023-07-28T19:16:43;5.65;;;5.18;;
1585;SDS011;786;48.718;9.514;2023-07-28T19:19:09;5.85;;;5.32;;
1585;SDS011;786;48.718;9.514;2023-07-28T19:21:35;6.18;;;5.57;;
1585;SDS011;786;48.718;9.514;2023-07-28T19:24:02;4.70;;;4.30;;
1585;SDS011;786;48.718;9.514;2023-07-28T19:26:28;6.07;;;5.57;;
1585;SDS011;786;48.718;9.514;2023-07-28T19:28:55;5.18;;;4.78;;
1585;SDS011;786;48.718;9.514;2023-07-28T19:31:21;6.25;;;5.70;;
1585;SDS011;786;48.718;9.514;2023-07-28T19:33:49;4.68;;;4.28;;
1585;SDS011;786;48.718;9.514;2023-07-28T19:36:16;5.38;;;4.97;;
1585;SDS011;786;48.718;9.514;2023-07-28T19:38:42;4.68;;;3.63;;
1585;SDS011;786;48.718;9.514;2023-07-28T19:41:09;4.68;;;4.28;;
1585;SDS011;786;48.718;9.514;2023-07-28T19:43:37;3.92;;;3.55;;